createdAt,value
2023-02-11T00:00:51.655Z,100952.91
2023-02-11T00:01:53.450Z,100952.94
2023-02-11T00:02:55.013Z,100949.47
2023-02-11T00:03:57.445Z,100943.47
2023-02-11T00:04:59.588Z,100933.16
2023-02-11T00:06:04.350Z,100930.59
2023-02-11T00:07:05.945Z,100926.28
2023-02-11T00:08:07.473Z,100927.13
2023-02-11T00:09:10.593Z,100914.22
2023-02-11T00:10:12.199Z,100922.81
2023-02-11T00:11:16.349Z,100922.84
2023-02-11T00:12:17.949Z,100916.81
2023-02-11T00:13:19.660Z,100922.88
2023-02-11T00:14:21.262Z,100923.72
2023-02-11T00:15:22.874Z,100923.69
2023-02-11T00:16:24.510Z,100921.91
2023-02-11T00:17:26.103Z,100924.50
2023-02-11T00:18:27.939Z,100924.50
2023-02-11T00:19:29.454Z,100921.94
2023-02-11T00:20:30.997Z,100921.13
2023-02-11T00:21:33.085Z,100918.53
2023-02-11T00:22:34.722Z,100922.78
2023-02-11T00:23:36.831Z,100927.09
2023-02-11T00:24:38.438Z,100927.09
2023-02-11T00:25:44.728Z,100916.75
2023-02-11T00:26:46.247Z,100921.03
2023-02-11T00:27:47.753Z,100927.03
2023-02-11T00:28:50.489Z,100927.03
2023-02-11T00:29:52.190Z,100926.16
2023-02-11T00:30:58.240Z,100926.13
2023-02-11T00:31:59.917Z,100924.38
2023-02-11T00:33:01.810Z,100927.84
2023-02-11T00:34:03.417Z,100930.41
2023-02-11T00:35:05.229Z,100932.16
2023-02-11T00:36:10.100Z,100923.59
2023-02-11T00:37:12.516Z,100925.38
2023-02-11T00:38:16.687Z,100922.75
2023-02-11T00:39:18.396Z,100923.56
2023-02-11T00:40:20.204Z,100911.53
2023-02-11T00:41:22.531Z,100914.06
2023-02-11T00:42:24.130Z,100908.91
2023-02-11T00:43:25.790Z,100908.91
2023-02-11T00:44:27.445Z,100909.75
2023-02-11T00:45:29.148Z,100910.63
2023-02-11T00:46:30.998Z,100906.31
2023-02-11T00:47:32.651Z,100898.53
2023-02-11T00:48:34.778Z,100895.94
2023-02-11T00:49:36.467Z,100898.50
2023-02-11T00:50:37.994Z,100895.94
2023-02-11T00:51:39.594Z,100891.66
2023-02-11T00:52:41.900Z,100887.41
2023-02-11T00:53:43.930Z,100889.97
2023-02-11T00:54:45.601Z,100886.56
2023-02-11T00:55:47.216Z,100882.28
2023-02-11T00:56:48.844Z,100879.69
2023-02-11T00:57:50.346Z,100877.06
2023-02-11T00:58:52.054Z,100871.06
2023-02-11T00:59:53.601Z,100859.91
2023-02-11T01:00:55.374Z,100863.41
2023-02-11T01:01:56.970Z,100855.69
2023-02-11T01:02:58.558Z,100856.63
2023-02-11T01:04:00.093Z,100854.88
2023-02-11T01:05:01.916Z,100855.69
2023-02-11T01:06:03.805Z,100857.41
2023-02-11T01:07:05.454Z,100853.97
2023-02-11T01:08:07.117Z,100845.38
2023-02-11T01:09:08.718Z,100844.50
2023-02-11T01:10:11.104Z,100847.97
2023-02-11T01:11:16.426Z,100848.81
2023-02-11T01:12:19.981Z,100847.09
2023-02-11T01:13:21.982Z,100847.97
2023-02-11T01:14:23.496Z,100841.94
2023-02-11T01:15:26.230Z,100848.81
2023-02-11T01:16:27.827Z,100845.44
2023-02-11T01:17:29.344Z,100839.47
2023-02-11T01:18:30.951Z,100842.88
2023-02-11T01:19:32.541Z,100842.06
2023-02-11T01:20:34.116Z,100838.66
2023-02-11T01:21:35.758Z,100836.91
2023-02-11T01:22:37.375Z,100836.84
2023-02-11T01:23:39.062Z,100839.44
2023-02-11T01:24:40.568Z,100838.56
2023-02-11T01:25:42.547Z,100839.38
2023-02-11T01:26:44.085Z,100831.66
2023-02-11T01:27:45.638Z,100838.50
2023-02-11T01:28:47.485Z,100825.66
2023-02-11T01:29:49.110Z,100823.09
2023-02-11T01:30:51.082Z,100821.41
2023-02-11T01:31:52.692Z,100812.78
2023-02-11T01:32:54.317Z,100813.63
2023-02-11T01:33:55.913Z,100810.22
2023-02-11T01:34:57.436Z,100800.81
2023-02-11T01:36:03.914Z,100798.25
2023-02-11T01:37:05.451Z,100799.09
2023-02-11T01:38:08.798Z,100787.13
2023-02-11T01:39:10.302Z,100793.97
2023-02-11T01:40:15.587Z,100793.91
2023-02-11T01:41:17.192Z,100791.34
2023-02-11T01:42:22.378Z,100798.22
2023-02-11T01:43:26.175Z,100787.88
2023-02-11T01:44:35.416Z,100789.53
2023-02-11T01:45:46.187Z,100790.41
2023-02-11T01:46:48.003Z,100777.50
2023-02-11T01:47:49.636Z,100777.50
2023-02-11T01:48:57.711Z,100780.94
2023-02-11T01:50:01.550Z,100774.91
2023-02-11T01:51:09.104Z,100779.16
2023-02-11T01:52:25.843Z,100770.50
2023-02-11T01:53:29.034Z,100775.66
2023-02-11T01:54:34.646Z,100768.78
2023-02-11T01:55:36.278Z,100767.09
2023-02-11T01:56:42.573Z,100766.22
2023-02-11T01:57:51.869Z,100765.31
2023-02-11T01:58:59.805Z,100760.94
2023-02-11T02:00:10.943Z,100760.06
2023-02-11T02:01:25.719Z,100762.63
2023-02-11T02:02:40.653Z,100760.88
2023-02-11T02:03:46.174Z,100753.09
2023-02-11T02:04:55.530Z,100750.50
2023-02-11T02:06:16.629Z,100754.81
2023-02-11T02:07:28.211Z,100744.50
2023-02-11T02:08:36.263Z,100741.06
2023-02-11T02:09:46.263Z,100734.16
2023-02-11T02:10:50.194Z,100737.47
2023-02-11T02:11:51.880Z,100731.44
2023-02-11T02:12:53.939Z,100729.75
2023-02-11T02:13:55.550Z,100722.88
2023-02-11T02:15:29.130Z,100717.63
2023-02-11T02:16:34.817Z,100714.19
2023-02-11T02:17:44.139Z,100706.41
2023-02-11T02:18:48.420Z,100704.72
2023-02-11T02:20:05.155Z,100697.75
2023-02-11T02:21:28.162Z,100702.84
2023-02-11T02:23:11.719Z,100701.06
2023-02-11T02:24:37.895Z,100700.22
2023-02-11T02:25:54.024Z,100701.06
2023-02-11T02:27:25.918Z,100709.69
2023-02-11T02:28:45.844Z,100704.50
2023-02-11T02:30:04.630Z,100696.69
2023-02-11T02:31:33.131Z,100693.19
2023-02-11T02:33:21.975Z,100688.81
2023-02-11T02:34:41.802Z,100685.34
2023-02-11T02:35:58.519Z,100686.19
2023-02-11T02:37:09.069Z,100691.28
2023-02-11T02:38:19.307Z,100690.34
2023-02-11T02:39:29.108Z,100690.28
2023-02-11T02:40:40.540Z,100685.06
2023-02-11T02:41:43.559Z,100692.81
2023-02-11T02:42:46.303Z,100682.41
2023-02-11T02:43:51.072Z,100684.94
2023-02-11T02:44:55.347Z,100684.13
2023-02-11T02:46:15.015Z,100685.81
2023-02-11T02:47:16.678Z,100685.88
2023-02-11T02:48:33.216Z,100681.47
2023-02-11T02:49:34.824Z,100685.69
2023-02-11T02:50:37.857Z,100682.22
2023-02-11T02:52:01.217Z,100681.41
2023-02-11T02:53:18.320Z,100680.53
2023-02-11T02:54:50.008Z,100688.19
2023-02-11T02:56:04.288Z,100680.41
2023-02-11T02:57:42.440Z,100676.94
2023-02-11T02:59:09.830Z,100675.94
2023-02-11T03:00:56.603Z,100671.69
2023-02-11T03:02:10.758Z,100668.25
2023-02-11T03:03:49.819Z,100669.94
2023-02-11T03:05:14.345Z,100664.72
2023-02-11T03:06:34.054Z,100676.75
2023-02-11T03:07:44.977Z,100675.84
2023-02-11T03:08:57.001Z,100682.72
2023-02-11T03:10:06.000Z,100684.44
2023-02-11T03:11:10.465Z,100677.56
2023-02-11T03:12:13.704Z,100680.97
2023-02-11T03:13:18.687Z,100674.03
2023-02-11T03:14:23.462Z,100674.13
2023-02-11T03:15:28.856Z,100666.53
2023-02-11T03:16:30.606Z,100669.19
2023-02-11T03:17:35.135Z,100668.44
2023-02-11T03:18:40.837Z,100674.50
2023-02-11T03:19:46.012Z,100666.03
2023-02-11T03:20:51.820Z,100668.63
2023-02-11T03:21:54.739Z,100663.63
2023-02-11T03:23:20.305Z,100664.47
2023-02-11T03:24:30.310Z,100658.41
2023-02-11T03:25:38.394Z,100655.00
2023-02-11T03:26:54.467Z,100661.00
2023-02-11T03:28:15.782Z,100656.72
2023-02-11T03:29:40.970Z,100656.66
2023-02-11T03:30:52.845Z,100651.50
2023-02-11T03:32:23.148Z,100660.16
2023-02-11T03:33:39.728Z,100657.53
2023-02-11T03:35:08.033Z,100654.94
2023-02-11T03:36:17.226Z,100655.78
2023-02-11T03:37:25.257Z,100657.47
2023-02-11T03:38:33.136Z,100659.16
2023-02-11T03:39:42.806Z,100653.94
2023-02-11T03:40:45.087Z,100647.84
2023-02-11T03:41:48.628Z,100647.16
2023-02-11T03:42:58.591Z,100642.03
2023-02-11T03:44:01.914Z,100628.31
2023-02-11T03:45:08.128Z,100622.38
2023-02-11T03:46:12.065Z,100619.66
2023-02-11T03:47:17.336Z,100621.38
2023-02-11T03:48:30.749Z,100623.94
2023-02-11T03:49:33.582Z,100605.00
2023-02-11T03:50:37.019Z,100606.75
2023-02-11T03:51:39.247Z,100598.16
2023-02-11T03:52:41.056Z,100596.50
2023-02-11T03:53:46.344Z,100596.50
2023-02-11T03:54:53.431Z,100593.03
2023-02-11T03:56:00.004Z,100585.34
2023-02-11T03:57:04.025Z,100577.59
2023-02-11T03:58:06.150Z,100581.88
2023-02-11T03:59:08.280Z,100579.19
2023-02-11T04:00:10.608Z,100584.41
2023-02-11T04:01:15.741Z,100578.41
2023-02-11T04:02:17.807Z,100578.44
2023-02-11T04:03:19.473Z,100574.06
2023-02-11T04:04:21.219Z,100579.19
2023-02-11T04:05:22.703Z,100577.41
2023-02-11T04:06:24.220Z,100576.50
2023-02-11T04:07:26.033Z,100579.09
2023-02-11T04:08:27.645Z,100571.28
2023-02-11T04:09:29.169Z,100574.69
2023-02-11T04:10:30.810Z,100568.63
2023-02-11T04:11:32.452Z,100558.31
2023-02-11T04:12:34.510Z,100562.63
2023-02-11T04:13:36.070Z,100558.25
2023-02-11T04:14:37.782Z,100548.00
2023-02-11T04:15:39.280Z,100550.63
2023-02-11T04:16:40.897Z,100549.78
2023-02-11T04:17:42.699Z,100545.38
2023-02-11T04:18:44.305Z,100545.31
2023-02-11T04:19:45.802Z,100546.13
2023-02-11T04:20:48.904Z,100547.78
2023-02-11T04:21:50.652Z,100547.78
2023-02-11T04:22:52.201Z,100544.28
2023-02-11T04:23:53.755Z,100548.56
2023-02-11T04:24:55.283Z,100549.47
2023-02-11T04:25:56.850Z,100551.22
2023-02-11T04:26:58.575Z,100551.16
2023-02-11T04:28:00.226Z,100541.63
2023-02-11T04:29:01.778Z,100545.91
2023-02-11T04:30:07.798Z,100539.91
2023-02-11T04:31:09.400Z,100538.16
2023-02-11T04:32:11.661Z,100537.28
2023-02-11T04:33:13.316Z,100540.81
2023-02-11T04:34:15.433Z,100539.03
2023-02-11T04:35:17.039Z,100539.03
2023-02-11T04:36:18.641Z,100540.66
2023-02-11T04:37:20.460Z,100540.56
2023-02-11T04:38:21.953Z,100539.69
2023-02-11T04:39:23.643Z,100539.69
2023-02-11T04:40:25.163Z,100542.28
2023-02-11T04:41:26.668Z,100539.56
2023-02-11T04:42:28.159Z,100544.84
2023-02-11T04:43:29.773Z,100540.59
2023-02-11T04:44:31.479Z,100548.31
2023-02-11T04:45:33.309Z,100545.69
2023-02-11T04:46:35.100Z,100541.44
2023-02-11T04:47:36.805Z,100544.88
2023-02-11T04:48:38.410Z,100542.31
2023-02-11T04:49:39.979Z,100536.31
2023-02-11T04:50:41.733Z,100529.44
2023-02-11T04:51:44.101Z,100540.59
2023-02-11T04:52:45.758Z,100538.09
2023-02-11T04:53:47.253Z,100539.78
2023-02-11T04:54:48.858Z,100547.47
2023-02-11T04:55:51.350Z,100550.88
2023-02-11T04:56:53.383Z,100550.78
2023-02-11T04:57:54.898Z,100557.66
2023-02-11T04:58:56.448Z,100555.88
2023-02-11T04:59:57.987Z,100549.97
2023-02-11T05:01:11.060Z,100542.16
2023-02-11T05:02:12.685Z,100548.13
2023-02-11T05:03:14.391Z,100554.97
2023-02-11T05:04:16.446Z,100554.09
2023-02-11T05:05:18.135Z,100550.56
2023-02-11T05:06:19.713Z,100548.91
2023-02-11T05:07:21.391Z,100546.38
2023-02-11T05:08:22.918Z,100544.72
2023-02-11T05:09:24.552Z,100540.47
2023-02-11T05:10:26.114Z,100539.63
2023-02-11T05:11:27.624Z,100543.09
2023-02-11T05:12:29.194Z,100530.22
2023-02-11T05:13:31.350Z,100536.25
2023-02-11T05:14:32.968Z,100530.19
2023-02-11T05:15:34.457Z,100529.38
2023-02-11T05:16:36.146Z,100527.59
2023-02-11T05:17:37.726Z,100525.03
2023-02-11T05:18:40.640Z,100525.06
2023-02-11T05:19:43.123Z,100525.97
2023-02-11T05:20:44.908Z,100533.59
2023-02-11T05:22:01.464Z,100530.09
2023-02-11T05:23:03.465Z,100523.16
2023-02-11T05:24:05.407Z,100522.25
2023-02-11T05:25:07.583Z,100523.97
2023-02-11T05:26:09.437Z,100523.22
2023-02-11T05:27:10.937Z,100526.63
2023-02-11T05:28:12.557Z,100523.16
2023-02-11T05:29:14.151Z,100526.53
2023-02-11T05:30:15.757Z,100527.38
2023-02-11T05:31:17.459Z,100525.75
2023-02-11T05:32:19.098Z,100519.53
2023-02-11T05:33:20.862Z,100522.13
2023-02-11T05:34:22.370Z,100525.50
2023-02-11T05:35:24.200Z,100522.84
2023-02-11T05:36:25.790Z,100521.88
2023-02-11T05:37:27.388Z,100537.38
2023-02-11T05:38:29.378Z,100540.72
2023-02-11T05:39:30.939Z,100546.59
2023-02-11T05:40:32.464Z,100549.19
2023-02-11T05:41:33.975Z,100548.34
2023-02-11T05:42:35.631Z,100546.75
2023-02-11T05:43:37.232Z,100551.19
2023-02-11T05:44:38.847Z,100545.06
2023-02-11T05:45:40.437Z,100550.97
2023-02-11T05:46:42.029Z,100554.50
2023-02-11T05:47:43.647Z,100541.59
2023-02-11T05:48:45.349Z,100539.00
2023-02-11T05:49:46.959Z,100549.47
2023-02-11T05:50:48.562Z,100550.31
2023-02-11T05:51:50.145Z,100541.72
2023-02-11T05:52:51.664Z,100550.31
2023-02-11T05:53:53.783Z,100548.53
2023-02-11T05:54:55.380Z,100544.25
2023-02-11T05:55:56.950Z,100553.72
2023-02-11T05:56:58.497Z,100549.41
2023-02-11T05:58:00.144Z,100555.56
2023-02-11T05:59:01.749Z,100551.28
2023-02-11T06:00:05.257Z,100549.50
2023-02-11T06:01:13.921Z,100550.47
2023-02-11T06:02:15.669Z,100552.16
2023-02-11T06:03:17.380Z,100548.63
2023-02-11T06:04:18.939Z,100547.81
2023-02-11T06:05:20.483Z,100555.63
2023-02-11T06:06:22.152Z,100554.66
2023-02-11T06:07:23.704Z,100547.78
2023-02-11T06:08:25.254Z,100552.16
2023-02-11T06:09:27.140Z,100547.06
2023-02-11T06:10:28.678Z,100539.25
2023-02-11T06:11:30.376Z,100531.41
2023-02-11T06:12:32.076Z,100531.31
2023-02-11T06:13:33.679Z,100533.03
2023-02-11T06:14:35.809Z,100532.19
2023-02-11T06:15:37.449Z,100523.56
2023-02-11T06:16:39.015Z,100530.44
2023-02-11T06:17:40.622Z,100516.69
2023-02-11T06:18:42.160Z,100517.69
2023-02-11T06:19:43.802Z,100517.69
2023-02-11T06:20:45.330Z,100524.44
2023-02-11T06:21:46.888Z,100525.31
2023-02-11T06:22:48.439Z,100522.75
2023-02-11T06:23:50.043Z,100532.97
2023-02-11T06:25:01.427Z,100523.47
2023-02-11T06:26:08.713Z,100523.47
2023-02-11T06:27:10.301Z,100520.91
2023-02-11T06:28:11.843Z,100519.28
2023-02-11T06:29:13.523Z,100523.63
2023-02-11T06:30:15.217Z,100513.31
2023-02-11T06:31:17.590Z,100513.22
2023-02-11T06:32:39.339Z,100511.50
2023-02-11T06:33:41.022Z,100512.41
2023-02-11T06:34:42.623Z,100509.00
2023-02-11T06:35:44.227Z,100503.94
2023-02-11T06:36:45.764Z,100502.97
2023-02-11T06:37:47.330Z,100496.91
2023-02-11T06:38:50.020Z,100496.91
2023-02-11T06:39:51.543Z,100488.25
2023-02-11T06:40:53.045Z,100489.97
2023-02-11T06:41:54.832Z,100489.88
2023-02-11T06:42:56.382Z,100491.56
2023-02-11T06:43:57.984Z,100484.59
2023-02-11T06:44:59.530Z,100499.16
2023-02-11T06:46:01.100Z,100500.84
2023-02-11T06:47:02.704Z,100501.66
2023-02-11T06:48:04.303Z,100504.16
2023-02-11T06:49:05.907Z,100503.13
2023-02-11T06:50:12.230Z,100499.56
2023-02-11T06:51:15.467Z,100505.50
2023-02-11T06:52:17.040Z,100502.97
2023-02-11T06:53:18.642Z,100510.66
2023-02-11T06:54:20.289Z,100515.72
2023-02-11T06:55:21.800Z,100513.00
2023-02-11T06:56:24.151Z,100522.34
2023-02-11T06:57:25.704Z,100518.00
2023-02-11T06:58:27.201Z,100519.75
2023-02-11T06:59:28.768Z,100524.94
2023-02-11T07:00:30.315Z,100519.81
2023-02-11T07:01:32.036Z,100518.13
2023-02-11T07:02:33.768Z,100521.53
2023-02-11T07:03:36.680Z,100518.16
2023-02-11T07:04:38.266Z,100517.25
2023-02-11T07:05:42.901Z,100526.69
2023-02-11T07:06:44.446Z,100528.47
2023-02-11T07:07:46.057Z,100525.03
2023-02-11T07:08:48.608Z,100524.94
2023-02-11T07:09:50.180Z,100523.16
2023-02-11T07:10:51.750Z,100524.00
2023-02-11T07:11:53.283Z,100517.19
2023-02-11T07:12:57.022Z,100518.94
2023-02-11T07:14:03.433Z,100511.28
2023-02-11T07:15:05.980Z,100508.81
2023-02-11T07:16:09.074Z,100498.47
2023-02-11T07:17:10.621Z,100501.16
2023-02-11T07:18:14.616Z,100502.97
2023-02-11T07:19:16.286Z,100503.78
2023-02-11T07:20:17.990Z,100509.03
2023-02-11T07:21:21.848Z,100518.44
2023-02-11T07:22:23.383Z,100521.81
2023-02-11T07:23:25.008Z,100532.06
2023-02-11T07:24:26.569Z,100524.28
2023-02-11T07:25:28.092Z,100523.41
2023-02-11T07:26:29.672Z,100526.88
2023-02-11T07:27:31.272Z,100513.22
2023-02-11T07:28:35.002Z,100505.47
2023-02-11T07:29:36.630Z,100506.28
2023-02-11T07:30:38.235Z,100507.06
2023-02-11T07:31:40.063Z,100506.22
2023-02-11T07:32:41.651Z,100509.69
2023-02-11T07:33:43.868Z,100498.59
2023-02-11T07:34:45.576Z,100497.63
2023-02-11T07:35:47.206Z,100494.97
2023-02-11T07:36:48.994Z,100494.88
2023-02-11T07:37:50.593Z,100492.28
2023-02-11T07:38:52.302Z,100494.97
2023-02-11T07:39:53.855Z,100494.16
2023-02-11T07:40:59.397Z,100486.34
2023-02-11T07:42:00.972Z,100482.81
2023-02-11T07:43:02.598Z,100475.94
2023-02-11T07:44:04.429Z,100483.59
2023-02-11T07:45:06.519Z,100478.41
2023-02-11T07:46:23.792Z,100481.75
2023-02-11T07:47:25.399Z,100483.50
2023-02-11T07:48:27.006Z,100483.44
2023-02-11T07:49:28.839Z,100483.25
2023-02-11T07:50:30.603Z,100488.44
2023-02-11T07:51:32.133Z,100484.81
2023-02-11T07:52:33.728Z,100485.59
2023-02-11T07:53:35.848Z,100483.81
2023-02-11T07:54:37.458Z,100483.75
2023-02-11T07:55:39.063Z,100477.66
2023-02-11T07:56:40.620Z,100486.31
2023-02-11T07:57:42.173Z,100472.47
2023-02-11T07:58:44.596Z,100469.72
2023-02-11T07:59:46.115Z,100476.66
2023-02-11T08:00:47.738Z,100469.66
2023-02-11T08:01:49.303Z,100470.38
2023-02-11T08:02:50.875Z,100459.94
2023-02-11T08:03:53.112Z,100465.91
2023-02-11T08:04:54.729Z,100459.00
2023-02-11T08:05:56.433Z,100462.38
2023-02-11T08:06:59.160Z,100455.50
2023-02-11T08:08:00.876Z,100454.56
2023-02-11T08:09:15.780Z,100454.56
2023-02-11T08:10:17.484Z,100468.28
2023-02-11T08:11:22.375Z,100460.41
2023-02-11T08:12:23.911Z,100459.63
2023-02-11T08:13:25.471Z,100463.09
2023-02-11T08:14:26.972Z,100463.88
2023-02-11T08:15:28.555Z,100468.06
2023-02-11T08:16:32.964Z,100465.47
2023-02-11T08:17:35.979Z,100466.34
2023-02-11T08:18:37.484Z,100467.16
2023-02-11T08:19:39.391Z,100461.88
2023-02-11T08:20:40.999Z,100466.06
2023-02-11T08:21:43.320Z,100462.53
2023-02-11T08:22:44.866Z,100467.69
2023-02-11T08:23:47.049Z,100460.72
2023-02-11T08:24:51.365Z,100459.78
2023-02-11T08:25:53.837Z,100458.84
2023-02-11T08:26:55.493Z,100458.81
2023-02-11T08:27:57.012Z,100470.81
2023-02-11T08:28:59.086Z,100473.50
2023-02-11T08:30:00.872Z,100473.47
2023-02-11T08:31:11.768Z,100470.66
2023-02-11T08:32:13.423Z,100476.44
2023-02-11T08:33:15.003Z,100474.66
2023-02-11T08:34:16.594Z,100478.97
2023-02-11T08:35:18.867Z,100483.16
2023-02-11T08:36:23.393Z,100483.06
2023-02-11T08:37:24.945Z,100487.44
2023-02-11T08:38:26.494Z,100483.97
2023-02-11T08:39:28.061Z,100487.50
2023-02-11T08:40:29.634Z,100487.44
2023-02-11T08:41:32.219Z,100485.72
2023-02-11T08:42:33.724Z,100479.66
2023-02-11T08:43:36.257Z,100477.84
2023-02-11T08:44:37.855Z,100469.88
2023-02-11T08:45:39.537Z,100465.56
2023-02-11T08:46:41.177Z,100464.63
2023-02-11T08:47:42.685Z,100456.03
2023-02-11T08:48:45.299Z,100456.09
2023-02-11T08:49:46.805Z,100453.44
2023-02-11T08:50:48.326Z,100458.72
2023-02-11T08:51:50.324Z,100464.78
2023-02-11T08:52:51.870Z,100456.09
2023-02-11T08:53:55.301Z,100456.03
2023-02-11T08:54:56.978Z,100451.66
2023-02-11T08:55:58.493Z,100453.38
2023-02-11T08:57:00.606Z,100450.69
2023-02-11T08:58:02.182Z,100446.25
2023-02-11T08:59:03.806Z,100450.56
2023-02-11T09:00:06.126Z,100447.06
2023-02-11T09:01:12.579Z,100442.69
2023-02-11T09:02:15.001Z,100445.22
2023-02-11T09:03:16.981Z,100443.44
2023-02-11T09:04:18.541Z,100441.66
2023-02-11T09:05:20.094Z,100445.03
2023-02-11T09:06:23.151Z,100442.31
2023-02-11T09:07:24.662Z,100441.53
2023-02-11T09:08:26.238Z,100444.91
2023-02-11T09:09:27.731Z,100445.78
2023-02-11T09:10:29.235Z,100446.69
2023-02-11T09:11:34.956Z,100452.53
2023-02-11T09:12:36.536Z,100456.72
2023-02-11T09:13:38.140Z,100454.09
2023-02-11T09:14:39.644Z,100461.78
2023-02-11T09:15:45.548Z,100466.94
2023-02-11T09:16:47.484Z,100452.34
2023-02-11T09:17:49.056Z,100454.84
2023-02-11T09:18:50.878Z,100460.75
2023-02-11T09:19:52.448Z,100459.00
2023-02-11T09:21:01.509Z,100460.75
2023-02-11T09:22:03.117Z,100463.34
2023-02-11T09:23:04.753Z,100460.66
2023-02-11T09:24:06.878Z,100464.03
2023-02-11T09:25:08.586Z,100464.03
2023-02-11T09:26:16.943Z,100469.91
2023-02-11T09:27:18.573Z,100472.34
2023-02-11T09:28:20.144Z,100485.25
2023-02-11T09:29:21.760Z,100487.75
2023-02-11T09:30:23.468Z,100496.38
2023-02-11T09:31:27.117Z,100500.59
2023-02-11T09:32:28.827Z,100504.88
2023-02-11T09:33:31.146Z,100503.94
2023-02-11T09:34:32.750Z,100496.84
2023-02-11T09:35:34.250Z,100497.72
2023-02-11T09:36:38.319Z,100497.63
2023-02-11T09:37:40.019Z,100502.69
2023-02-11T09:38:42.031Z,100515.56
2023-02-11T09:39:43.624Z,100508.56
2023-02-11T09:40:45.763Z,100500.63
2023-02-11T09:42:12.537Z,100492.00
2023-02-11T09:43:19.259Z,100499.00
2023-02-11T09:44:27.107Z,100496.31
2023-02-11T09:45:30.758Z,100509.03
2023-02-11T09:46:41.764Z,100510.19
2023-02-11T09:47:49.035Z,100505.00
2023-02-11T09:48:53.369Z,100504.94
2023-02-11T09:50:01.220Z,100499.53
2023-02-11T09:51:03.957Z,100508.03
2023-02-11T09:52:15.189Z,100505.41
2023-02-11T09:53:25.918Z,100500.09
2023-02-11T09:54:34.249Z,100496.56
2023-02-11T09:55:43.130Z,100507.00
2023-02-11T09:56:44.717Z,100505.44
2023-02-11T09:57:46.434Z,100507.34
2023-02-11T09:58:48.045Z,100506.69
2023-02-11T09:59:49.746Z,100513.44
2023-02-11T10:01:30.888Z,100497.72
2023-02-11T10:02:52.724Z,100501.94
2023-02-11T10:04:22.116Z,100498.63
2023-02-11T10:05:36.242Z,100494.50
2023-02-11T10:07:01.700Z,100486.84
2023-02-11T10:08:17.101Z,100486.53
2023-02-11T10:09:42.053Z,100483.81
2023-02-11T10:10:54.032Z,100490.88
2023-02-11T10:12:10.743Z,100486.47
2023-02-11T10:13:20.908Z,100467.22
2023-02-11T10:14:53.549Z,100469.66
2023-02-11T10:16:08.494Z,100462.81
2023-02-11T10:17:12.939Z,100461.91
2023-02-11T10:18:44.084Z,100474.06
2023-02-11T10:20:03.934Z,100466.22
2023-02-11T10:21:29.476Z,100456.53
2023-02-11T10:22:35.081Z,100452.16
2023-02-11T10:23:41.182Z,100455.25
2023-02-11T10:24:52.824Z,100458.84
2023-02-11T10:25:55.961Z,100457.31
2023-02-11T10:26:58.483Z,100452.06
2023-02-11T10:28:02.048Z,100440.78
2023-02-11T10:29:25.339Z,100430.59
2023-02-11T10:30:32.354Z,100424.81
2023-02-11T10:31:38.801Z,100421.47
2023-02-11T10:32:49.496Z,100417.97
2023-02-11T10:34:04.706Z,100409.28
2023-02-11T10:35:14.595Z,100407.63
2023-02-11T10:36:17.887Z,100406.03
2023-02-11T10:37:19.546Z,100390.34
2023-02-11T10:38:21.255Z,100389.22
2023-02-11T10:39:25.830Z,100376.81
2023-02-11T10:40:30.000Z,100371.59
2023-02-11T10:41:36.095Z,100362.75
2023-02-11T10:42:38.106Z,100362.66
2023-02-11T10:43:42.371Z,100360.09
2023-02-11T10:44:56.668Z,100349.50
2023-02-11T10:46:00.379Z,100335.41
2023-02-11T10:47:09.087Z,100332.47
2023-02-11T10:48:35.562Z,100327.88
2023-02-11T10:49:45.345Z,100331.09
2023-02-11T10:50:46.954Z,100319.00
2023-02-11T10:51:48.456Z,100322.69
2023-02-11T10:52:50.063Z,100320.78
2023-02-11T10:54:03.840Z,100320.66
2023-02-11T10:55:27.142Z,100312.91
2023-02-11T10:56:30.286Z,100312.91
2023-02-11T10:57:40.280Z,100311.28
2023-02-11T10:58:46.285Z,100318.88
2023-02-11T10:59:48.195Z,100317.09
2023-02-11T11:00:54.206Z,100321.44
2023-02-11T11:02:01.599Z,100319.69
2023-02-11T11:03:16.860Z,100320.47
2023-02-11T11:04:30.090Z,100318.03
2023-02-11T11:05:37.052Z,100320.78
2023-02-11T11:06:38.755Z,100316.34
2023-02-11T11:07:51.511Z,100320.59
2023-02-11T11:08:53.119Z,100320.81
2023-02-11T11:09:57.695Z,100330.28
2023-02-11T11:11:05.762Z,100315.50
2023-02-11T11:12:25.154Z,100310.38
2023-02-11T11:13:32.698Z,100314.66
2023-02-11T11:14:34.300Z,100316.56
2023-02-11T11:15:35.914Z,100316.81
2023-02-11T11:16:37.615Z,100320.38
2023-02-11T11:17:39.219Z,100325.38
2023-02-11T11:18:46.151Z,100327.88
2023-02-11T11:19:47.747Z,100317.56
2023-02-11T11:21:01.255Z,100323.47
2023-02-11T11:22:04.355Z,100321.13
2023-02-11T11:23:21.112Z,100311.53
2023-02-11T11:24:28.543Z,100314.88
2023-02-11T11:25:30.559Z,100310.47
2023-02-11T11:26:48.445Z,100311.16
2023-02-11T11:27:52.498Z,100307.59
2023-02-11T11:29:01.496Z,100314.50
2023-02-11T11:30:03.283Z,100304.78
2023-02-11T11:31:12.340Z,100309.91
2023-02-11T11:32:21.065Z,100320.91
2023-02-11T11:33:31.225Z,100333.19
2023-02-11T11:34:39.888Z,100325.25
2023-02-11T11:35:59.298Z,100337.34
2023-02-11T11:37:11.343Z,100326.03
2023-02-11T11:38:15.000Z,100320.06
2023-02-11T11:39:30.715Z,100314.03
2023-02-11T11:40:34.880Z,100308.13
2023-02-11T11:41:36.484Z,100306.63
2023-02-11T11:42:39.930Z,100301.31
2023-02-11T11:43:58.829Z,100305.66
2023-02-11T11:45:24.380Z,100305.69
2023-02-11T11:46:39.016Z,100308.44
2023-02-11T11:47:50.813Z,100302.31
2023-02-11T11:48:55.303Z,100292.81
2023-02-11T11:50:21.162Z,100296.28
2023-02-11T11:51:24.184Z,100305.97
2023-02-11T11:52:50.667Z,100299.91
2023-02-11T11:54:00.712Z,100305.88
2023-02-11T11:55:11.568Z,100307.78
2023-02-11T11:56:17.984Z,100315.44
2023-02-11T11:57:25.619Z,100312.84
2023-02-11T11:58:29.179Z,100320.69
2023-02-11T11:59:30.780Z,100314.78
2023-02-11T12:00:53.610Z,100313.19
2023-02-11T12:02:19.478Z,100308.13
2023-02-11T12:03:48.456Z,100301.44
2023-02-11T12:05:12.575Z,100301.56
2023-02-11T12:06:19.902Z,100304.41
2023-02-11T12:07:27.443Z,100318.22
2023-02-11T12:08:35.094Z,100325.28
2023-02-11T12:10:04.325Z,100334.06
2023-02-11T12:11:50.636Z,100337.72
2023-02-11T12:13:11.494Z,100334.34
2023-02-11T12:14:31.130Z,100330.84
2023-02-11T12:15:42.740Z,100329.22
2023-02-11T12:17:10.241Z,100329.31
2023-02-11T12:18:36.318Z,100323.09
2023-02-11T12:19:44.030Z,100317.88
2023-02-11T12:21:19.096Z,100316.31
2023-02-11T12:22:49.385Z,100317.22
2023-02-11T12:24:09.430Z,100313.88
2023-02-11T12:25:17.144Z,100321.75
2023-02-11T12:26:24.164Z,100326.91
2023-02-11T12:27:44.804Z,100324.38
2023-02-11T12:29:17.027Z,100314.03
2023-02-11T12:30:42.568Z,100308.84
2023-02-11T12:31:47.023Z,100302.91